Time;durP1;ratioP1;P1;durP2;ratioP2;P2;SDS_P1;SDS_P2;PMS_P1;PMS_P2;Temp;Humidity;BMP_temperature;BMP_pressure;BME280_temperature;BME280_humidity;BME280_pressure;Samples;Min_cycle;Max_cycle;Signal;HPM_P1;HPM_P2
2023/08/04 00:01:39;;;;;;;;;;;23.20;52.60;;;;;;1579414;73;749;-70
2023/08/04 00:03:41;;;;;;;;;;;23.20;52.60;;;;;;1551679;75;616;-70
2023/08/04 00:05:43;;;;;;;;;;;23.20;52.60;;;;;;1539259;75;1139;-69
2023/08/04 00:07:45;;;;;;;;;;;23.10;52.60;;;;;;1558761;74;788;-71
2023/08/04 00:09:47;;;;;;;;;;;23.10;52.60;;;;;;1561287;74;674;-70
2023/08/04 00:11:49;;;;;;;;;;;23.20;52.70;;;;;;1562232;74;1558;-70
2023/08/04 00:13:51;;;;;;;;;;;23.10;52.70;;;;;;1563677;74;1930;-70
2023/08/04 00:15:53;;;;;;;;;;;23.10;52.70;;;;;;1565066;74;1109;-70
2023/08/04 00:17:56;;;;;;;;;;;23.10;52.70;;;;;;1560290;75;702;-70
2023/08/04 00:19:58;;;;;;;;;;;23.20;52.70;;;;;;1559504;74;782;-70
2023/08/04 00:21:59;;;;;;;;;;;23.10;52.80;;;;;;1561443;74;707;-68
2023/08/04 00:24:01;;;;;;;;;;;23.10;52.80;;;;;;1555834;74;796;-71
2023/08/04 00:26:03;;;;;;;;;;;23.10;52.70;;;;;;1559581;74;1163;-69
2023/08/04 00:28:05;;;;;;;;;;;23.20;52.80;;;;;;1559556;74;735;-71
2023/08/04 00:30:09;;;;;;;;;;;23.10;52.70;;;;;;1560410;74;790;-70
2023/08/04 00:32:11;;;;;;;;;;;23.20;52.80;;;;;;1551904;74;744;-70
2023/08/04 00:34:12;;;;;;;;;;;23.20;52.80;;;;;;1559664;74;1919;-70
2023/08/04 00:36:14;;;;;;;;;;;23.10;52.80;;;;;;1568122;74;821;-70
2023/08/04 00:38:16;;;;;;;;;;;23.20;52.80;;;;;;1562156;74;737;-70
2023/08/04 00:40:18;;;;;;;;;;;23.10;52.80;;;;;;1563333;74;746;-69
2023/08/04 00:42:20;;;;;;;;;;;23.10;52.80;;;;;;1561001;74;744;-70
2023/08/04 00:44:22;;;;;;;;;;;23.20;52.90;;;;;;1554139;74;1131;-68
2023/08/04 00:46:26;;;;;;;;;;;23.20;52.90;;;;;;1564803;74;671;-70
2023/08/04 00:48:27;;;;;;;;;;;23.10;52.80;;;;;;1565778;74;794;-70
2023/08/04 00:50:30;;;;;;;;;;;23.20;52.90;;;;;;1566599;74;696;-70
2023/08/04 00:52:32;;;;;;;;;;;23.10;52.80;;;;;;1559353;74;728;-70
2023/08/04 00:54:33;;;;;;;;;;;23.20;53.00;;;;;;1556699;74;1927;-69
2023/08/04 00:56:35;;;;;;;;;;;23.20;53.10;;;;;;1555232;74;933;-70
2023/08/04 00:58:37;;;;;;;;;;;23.20;53.10;;;;;;1556644;74;770;-68
2023/08/04 01:00:39;;;;;;;;;;;23.20;53.00;;;;;;1558225;74;777;-68
2023/08/04 01:02:41;;;;;;;;;;;23.20;53.00;;;;;;1580345;73;702;-68
2023/08/04 01:04:43;;;;;;;;;;;23.20;53.10;;;;;;1572695;75;1136;-69
2023/08/04 01:06:55;;;;;;;;;;;23.20;53.10;;;;;;1553100;75;782;-68
2023/08/04 01:09:04;;;;;;;;;;;23.10;53.10;;;;;;1556679;75;1620;-70
2023/08/04 01:11:07;;;;;;;;;;;23.20;53.00;;;;;;1547933;75;1763;-69
2023/08/04 01:13:09;;;;;;;;;;;23.20;53.10;;;;;;1553308;75;1931;-70
2023/08/04 01:15:11;;;;;;;;;;;23.20;53.10;;;;;;1549481;75;1197;-69
2023/08/04 01:17:22;;;;;;;;;;;23.20;53.20;;;;;;1552381;75;830;-68
2023/08/04 01:19:24;;;;;;;;;;;23.20;53.20;;;;;;1546136;75;670;-70
2023/08/04 01:21:27;;;;;;;;;;;23.10;53.20;;;;;;1547998;75;655;-70
2023/08/04 01:23:29;;;;;;;;;;;23.20;53.30;;;;;;1558241;75;783;-69
2023/08/04 01:25:32;;;;;;;;;;;23.20;53.40;;;;;;1550983;75;1146;-70
2023/08/04 01:27:36;;;;;;;;;;;23.20;53.40;;;;;;1553963;75;733;-69
2023/08/04 01:29:38;;;;;;;;;;;23.20;53.40;;;;;;1557743;75;783;-70
2023/08/04 01:31:40;;;;;;;;;;;23.20;53.40;;;;;;1552091;75;773;-67
2023/08/04 01:33:42;;;;;;;;;;;23.10;53.50;;;;;;1549535;75;1926;-67
2023/08/04 01:35:43;;;;;;;;;;;23.20;53.50;;;;;;1559858;75;1159;-67
2023/08/04 01:37:45;;;;;;;;;;;23.20;53.50;;;;;;1554803;75;742;-67
2023/08/04 01:39:47;;;;;;;;;;;23.20;53.50;;;;;;1549055;75;753;-67
2023/08/04 01:41:49;;;;;;;;;;;23.20;53.50;;;;;;1552541;75;696;-67
2023/08/04 01:43:51;;;;;;;;;;;23.20;53.60;;;;;;1553323;75;872;-66
2023/08/04 01:45:53;;;;;;;;;;;23.10;53.60;;;;;;1555868;75;1165;-67
2023/08/04 01:47:55;;;;;;;;;;;23.20;53.60;;;;;;1555899;75;744;-67
2023/08/04 01:49:56;;;;;;;;;;;23.20;53.60;;;;;;1555979;75;729;-66
2023/08/04 01:51:58;;;;;;;;;;;23.20;53.60;;;;;;1562384;75;779;-66
2023/08/04 01:54:00;;;;;;;;;;;23.20;53.60;;;;;;1561633;75;1950;-68
2023/08/04 01:56:02;;;;;;;;;;;23.20;53.60;;;;;;1545471;75;1186;-68
2023/08/04 01:58:04;;;;;;;;;;;23.20;53.60;;;;;;1557654;75;803;-66
2023/08/04 02:00:07;;;;;;;;;;;23.20;53.60;;;;;;1551637;75;837;-67
2023/08/04 02:02:09;;;;;;;;;;;23.20;53.60;;;;;;1551912;75;761;-68
2023/08/04 02:04:11;;;;;;;;;;;23.20;53.60;;;;;;1554901;75;1162;-68
2023/08/04 02:06:14;;;;;;;;;;;23.20;53.60;;;;;;1548190;75;796;-67
2023/08/04 02:08:16;;;;;;;;;;;23.10;53.70;;;;;;1554622;75;800;-68
2023/08/04 02:10:18;;;;;;;;;;;23.20;53.70;;;;;;1548445;75;776;-68
2023/08/04 02:12:20;;;;;;;;;;;23.20;53.70;;;;;;1547315;75;719;-67
2023/08/04 02:14:22;;;;;;;;;;;23.20;53.70;;;;;;1549738;75;1945;-67
2023/08/04 02:16:24;;;;;;;;;;;23.20;53.80;;;;;;1552329;75;723;-68
2023/08/04 02:18:26;;;;;;;;;;;23.20;53.80;;;;;;1557012;75;743;-67
2023/08/04 02:20:28;;;;;;;;;;;23.20;53.70;;;;;;1549962;75;713;-68
2023/08/04 02:22:30;;;;;;;;;;;23.30;53.90;;;;;;1551987;75;732;-68
2023/08/04 02:24:32;;;;;;;;;;;23.20;53.70;;;;;;1556016;75;1203;-68
2023/08/04 02:26:34;;;;;;;;;;;23.10;53.80;;;;;;1547777;75;806;-67
2023/08/04 02:28:35;;;;;;;;;;;23.20;53.70;;;;;;1551574;75;797;-67
2023/08/04 02:30:37;;;;;;;;;;;23.20;53.90;;;;;;1547993;75;685;-66
2023/08/04 02:32:39;;;;;;;;;;;23.20;53.40;;;;;;1552515;75;712;-68
2023/08/04 02:34:41;;;;;;;;;;;23.20;53.60;;;;;;1545965;75;1948;-67
2023/08/04 02:36:43;;;;;;;;;;;23.20;53.40;;;;;;1546620;75;792;-67
2023/08/04 02:38:45;;;;;;;;;;;23.20;53.50;;;;;;1542664;75;762;-67
2023/08/04 02:40:47;;;;;;;;;;;23.20;53.40;;;;;;1551240;75;721;-68
2023/08/04 02:42:49;;;;;;;;;;;23.20;53.10;;;;;;1552464;75;779;-67
2023/08/04 02:44:54;;;;;;;;;;;23.20;53.40;;;;;;1546515;75;1139;-68
2023/08/04 02:46:56;;;;;;;;;;;23.20;53.30;;;;;;1552043;75;713;-67
2023/08/04 02:48:58;;;;;;;;;;;23.20;53.40;;;;;;1558328;75;742;-68
2023/08/04 02:51:03;;;;;;;;;;;23.20;53.40;;;;;;1557001;75;787;-65
2023/08/04 02:53:05;;;;;;;;;;;23.20;53.30;;;;;;1545196;75;774;-67
2023/08/04 02:55:07;;;;;;;;;;;23.20;52.80;;;;;;1552553;75;1937;-68
2023/08/04 02:57:09;;;;;;;;;;;23.20;53.20;;;;;;1552132;75;790;-67
2023/08/04 02:59:11;;;;;;;;;;;23.20;53.10;;;;;;1552691;75;956;-68
2023/08/04 03:01:13;;;;;;;;;;;23.20;52.90;;;;;;1550937;75;746;-66
2023/08/04 03:03:15;;;;;;;;;;;23.20;52.80;;;;;;1555971;75;813;-66
2023/08/04 03:05:17;;;;;;;;;;;23.20;52.60;;;;;;1562833;75;1132;-65
2023/08/04 03:07:19;;;;;;;;;;;23.30;52.80;;;;;;1561963;75;771;-65
2023/08/04 03:09:21;;;;;;;;;;;23.20;52.40;;;;;;1555000;75;786;-66
2023/08/04 03:11:23;;;;;;;;;;;23.20;52.50;;;;;;1554345;75;819;-68
2023/08/04 03:13:25;;;;;;;;;;;23.20;53.00;;;;;;1553779;74;739;-67
2023/08/04 03:15:26;;;;;;;;;;;23.20;53.00;;;;;;1558003;74;1936;-68
2023/08/04 03:17:28;;;;;;;;;;;23.20;53.00;;;;;;1556053;74;613;-66
2023/08/04 03:19:31;;;;;;;;;;;23.20;52.60;;;;;;1553427;74;741;-67
2023/08/04 03:21:34;;;;;;;;;;;23.20;52.60;;;;;;1559659;74;1529;-68
2023/08/04 03:23:36;;;;;;;;;;;23.20;52.60;;;;;;1553414;74;811;-67
2023/08/04 03:25:38;;;;;;;;;;;23.20;52.50;;;;;;1558419;74;1161;-68
2023/08/04 03:27:39;;;;;;;;;;;23.20;52.60;;;;;;1553892;74;597;-68
2023/08/04 03:29:41;;;;;;;;;;;23.20;52.80;;;;;;1554757;74;643;-67
2023/08/04 03:31:43;;;;;;;;;;;23.20;53.10;;;;;;1561454;74;771;-67
2023/08/04 03:33:45;;;;;;;;;;;23.20;52.30;;;;;;1553767;74;1947;-67
2023/08/04 03:35:47;;;;;;;;;;;23.20;52.30;;;;;;1559148;74;1166;-67
2023/08/04 03:37:49;;;;;;;;;;;23.20;52.40;;;;;;1559285;74;785;-68
2023/08/04 03:39:51;;;;;;;;;;;23.20;52.80;;;;;;1563550;74;726;-65
2023/08/04 03:41:53;;;;;;;;;;;23.20;52.90;;;;;;1554980;74;696;-67
2023/08/04 03:43:54;;;;;;;;;;;23.20;52.80;;;;;;1560460;74;795;-68
2023/08/04 03:45:56;;;;;;;;;;;23.20;52.00;;;;;;1555521;74;1146;-67
2023/08/04 03:47:58;;;;;;;;;;;23.20;52.80;;;;;;1565244;74;727;-66
2023/08/04 03:50:00;;;;;;;;;;;23.20;53.10;;;;;;1559349;74;775;-67
2023/08/04 03:52:02;;;;;;;;;;;23.20;52.60;;;;;;1560030;74;712;-67
2023/08/04 03:54:05;;;;;;;;;;;23.20;52.40;;;;;;1556420;74;1954;-65
2023/08/04 03:56:07;;;;;;;;;;;23.20;52.00;;;;;;1564808;74;704;-67
2023/08/04 03:58:09;;;;;;;;;;;23.20;52.30;;;;;;1561570;74;755;-67
2023/08/04 04:00:11;;;;;;;;;;;23.20;53.00;;;;;;1562883;74;775;-65
2023/08/04 04:02:13;;;;;;;;;;;23.20;52.10;;;;;;1555914;74;723;-66
2023/08/04 04:04:15;;;;;;;;;;;23.20;52.10;;;;;;1556312;74;1134;-68
2023/08/04 04:06:17;;;;;;;;;;;23.20;52.20;;;;;;1556880;74;688;-67
2023/08/04 04:08:19;;;;;;;;;;;23.20;51.90;;;;;;1554767;74;732;-68
2023/08/04 04:10:20;;;;;;;;;;;23.20;52.40;;;;;;1559551;74;826;-68
2023/08/04 04:12:22;;;;;;;;;;;23.20;52.40;;;;;;1560555;74;739;-67
2023/08/04 04:14:24;;;;;;;;;;;23.20;52.10;;;;;;1553946;74;1925;-67
2023/08/04 04:16:29;;;;;;;;;;;23.20;52.40;;;;;;1564209;74;1063;-67
2023/08/04 04:18:30;;;;;;;;;;;23.20;52.20;;;;;;1561702;74;1689;-65
2023/08/04 04:20:31;;;;;;;;;;;23.20;52.50;;;;;;1554460;74;778;-68
2023/08/04 04:22:34;;;;;;;;;;;23.20;52.20;;;;;;1550560;74;712;-69
2023/08/04 04:24:36;;;;;;;;;;;23.20;52.50;;;;;;1555986;74;1143;-68
2023/08/04 04:26:37;;;;;;;;;;;23.20;52.30;;;;;;1558125;74;822;-68
2023/08/04 04:28:39;;;;;;;;;;;23.20;52.80;;;;;;1566198;74;829;-68
2023/08/04 04:30:41;;;;;;;;;;;23.20;52.60;;;;;;1559657;74;791;-66
2023/08/04 04:32:43;;;;;;;;;;;23.20;52.60;;;;;;1556597;74;794;-68
2023/08/04 04:34:45;;;;;;;;;;;23.20;52.60;;;;;;1557630;74;1942;-68
2023/08/04 04:36:47;;;;;;;;;;;23.20;52.50;;;;;;1562671;74;716;-67
2023/08/04 04:38:49;;;;;;;;;;;23.20;52.80;;;;;;1532283;76;1104;-67
2023/08/04 04:40:57;;;;;;;;;;;23.20;52.30;;;;;;1563580;74;708;-67
2023/08/04 04:42:59;;;;;;;;;;;23.20;52.60;;;;;;1565182;74;715;-67
2023/08/04 04:45:01;;;;;;;;;;;23.20;52.40;;;;;;1562943;74;1129;-67
2023/08/04 04:47:04;;;;;;;;;;;23.20;52.30;;;;;;1562861;74;938;-67
2023/08/04 04:49:06;;;;;;;;;;;23.20;52.60;;;;;;1560695;74;761;-67
2023/08/04 04:51:08;;;;;;;;;;;23.20;53.00;;;;;;1551030;74;749;-66
2023/08/04 04:53:10;;;;;;;;;;;23.20;53.60;;;;;;1568197;74;759;-69
2023/08/04 04:55:12;;;;;;;;;;;23.20;52.50;;;;;;1544846;74;1939;-67
2023/08/04 04:57:14;;;;;;;;;;;23.20;51.90;;;;;;1555533;74;788;-69
2023/08/04 04:59:16;;;;;;;;;;;23.20;51.70;;;;;;1563512;74;767;-67
2023/08/04 05:01:18;;;;;;;;;;;23.20;51.60;;;;;;1554011;74;715;-69
2023/08/04 05:03:20;;;;;;;;;;;23.20;51.60;;;;;;1562040;74;741;-70
2023/08/04 05:05:21;;;;;;;;;;;23.20;51.50;;;;;;1550007;74;1100;-68
2023/08/04 05:07:23;;;;;;;;;;;23.20;51.50;;;;;;1560013;75;703;-67
2023/08/04 05:09:25;;;;;;;;;;;23.20;51.50;;;;;;1561121;74;786;-69
2023/08/04 05:11:27;;;;;;;;;;;23.20;51.50;;;;;;1554624;74;791;-68
2023/08/04 05:13:29;;;;;;;;;;;23.20;51.50;;;;;;1560194;74;1512;-67
2023/08/04 05:15:31;;;;;;;;;;;23.20;51.50;;;;;;1566037;74;1941;-70
2023/08/04 05:17:35;;;;;;;;;;;23.20;51.50;;;;;;1561646;74;737;-68
2023/08/04 05:19:36;;;;;;;;;;;23.20;51.50;;;;;;1561563;74;1432;-68
2023/08/04 05:21:38;;;;;;;;;;;23.20;51.50;;;;;;1561590;74;739;-67
2023/08/04 05:23:40;;;;;;;;;;;23.20;51.50;;;;;;1565335;74;774;-68
2023/08/04 05:25:42;;;;;;;;;;;23.20;51.40;;;;;;1566703;74;1125;-68
2023/08/04 05:27:44;;;;;;;;;;;23.20;51.30;;;;;;1573475;74;801;-68
2023/08/04 05:29:46;;;;;;;;;;;23.20;51.30;;;;;;1578489;74;810;-69
2023/08/04 05:31:48;;;;;;;;;;;23.20;52.00;;;;;;1573270;74;863;-66
2023/08/04 05:33:50;;;;;;;;;;;23.20;52.00;;;;;;1567594;74;711;-69
2023/08/04 05:35:52;;;;;;;;;;;23.20;51.70;;;;;;1572040;74;1930;-69
2023/08/04 05:37:53;;;;;;;;;;;23.20;51.90;;;;;;1569358;74;811;-67
2023/08/04 05:39:55;;;;;;;;;;;23.20;52.10;;;;;;1566146;74;744;-67
2023/08/04 05:41:57;;;;;;;;;;;23.20;51.80;;;;;;1575052;74;657;-69
2023/08/04 05:43:59;;;;;;;;;;;23.20;51.60;;;;;;1573154;74;648;-68
2023/08/04 05:46:04;;;;;;;;;;;23.20;51.60;;;;;;1570260;74;1120;-71
2023/08/04 05:48:06;;;;;;;;;;;23.20;51.50;;;;;;1564506;74;719;-70
2023/08/04 05:50:08;;;;;;;;;;;23.20;51.50;;;;;;1564326;74;735;-69
2023/08/04 05:52:10;;;;;;;;;;;23.20;51.60;;;;;;1556739;74;782;-70
2023/08/04 05:54:12;;;;;;;;;;;23.20;51.50;;;;;;1569954;74;1115;-69
2023/08/04 05:56:14;;;;;;;;;;;23.20;51.60;;;;;;1577838;74;1943;-68
2023/08/04 05:58:16;;;;;;;;;;;23.20;51.60;;;;;;1573432;74;793;-69
2023/08/04 06:00:18;;;;;;;;;;;23.20;51.60;;;;;;1560925;74;785;-71
2023/08/04 06:02:20;;;;;;;;;;;23.20;51.60;;;;;;1568822;74;780;-67
2023/08/04 06:04:22;;;;;;;;;;;23.20;51.60;;;;;;1563418;74;1111;-66
2023/08/04 06:06:24;;;;;;;;;;;23.20;51.60;;;;;;1571138;74;686;-70
2023/08/04 06:08:26;;;;;;;;;;;23.20;51.60;;;;;;1571975;74;1051;-68
2023/08/04 06:10:28;;;;;;;;;;;23.20;51.60;;;;;;1568010;74;1436;-69
2023/08/04 06:12:30;;;;;;;;;;;23.20;51.70;;;;;;1571214;74;672;-69
2023/08/04 06:14:31;;;;;;;;;;;23.20;51.60;;;;;;1569530;74;1186;-70
2023/08/04 06:16:33;;;;;;;;;;;23.20;51.60;;;;;;1566091;74;1934;-69
2023/08/04 06:18:35;;;;;;;;;;;23.20;51.70;;;;;;1571311;74;751;-68
2023/08/04 06:20:37;;;;;;;;;;;23.20;51.70;;;;;;1571112;74;808;-69
2023/08/04 06:22:39;;;;;;;;;;;23.20;51.60;;;;;;1573152;74;808;-68
2023/08/04 06:24:41;;;;;;;;;;;23.20;51.80;;;;;;1566371;74;1144;-68
2023/08/04 06:26:43;;;;;;;;;;;23.20;52.00;;;;;;1570820;74;1510;-69
2023/08/04 06:28:45;;;;;;;;;;;23.20;52.30;;;;;;1571673;74;1519;-72
2023/08/04 06:30:47;;;;;;;;;;;23.20;52.80;;;;;;1563078;74;1504;-68
2023/08/04 06:32:49;;;;;;;;;;;23.20;52.90;;;;;;1567718;74;1476;-68
2023/08/04 06:34:51;;;;;;;;;;;23.20;52.90;;;;;;1572528;74;1923;-67
2023/08/04 06:36:53;;;;;;;;;;;23.20;52.70;;;;;;1566702;74;1540;-69
2023/08/04 06:38:55;;;;;;;;;;;23.20;52.60;;;;;;1585788;73;1467;-67
2023/08/04 06:40:58;;;;;;;;;;;23.20;52.70;;;;;;1561847;74;1556;-67
2023/08/04 06:43:00;;;;;;;;;;;23.20;52.50;;;;;;1561259;74;1445;-67
2023/08/04 06:45:02;;;;;;;;;;;23.20;52.40;;;;;;1562613;74;1484;-68
2023/08/04 06:47:05;;;;;;;;;;;23.30;52.70;;;;;;1552148;74;1533;-67
2023/08/04 06:49:07;;;;;;;;;;;23.20;52.60;;;;;;1561259;74;1274;-68
2023/08/04 06:51:08;;;;;;;;;;;23.20;52.90;;;;;;1564115;74;810;-70
2023/08/04 06:53:10;;;;;;;;;;;23.30;53.00;;;;;;1566471;74;728;-67
2023/08/04 06:55:12;;;;;;;;;;;23.20;52.60;;;;;;1577393;74;1964;-67
2023/08/04 06:57:14;;;;;;;;;;;23.20;51.50;;;;;;1569607;74;786;-68
2023/08/04 06:59:16;;;;;;;;;;;23.10;51.60;;;;;;1577444;74;732;-67
2023/08/04 07:01:18;;;;;;;;;;;23.20;51.80;;;;;;1565928;74;738;-68
2023/08/04 07:03:20;;;;;;;;;;;23.20;52.30;;;;;;1562700;74;793;-68
2023/08/04 07:05:21;;;;;;;;;;;23.20;52.60;;;;;;1558601;74;1088;-68
2023/08/04 07:07:24;;;;;;;;;;;23.20;52.70;;;;;;1553519;74;673;-68
2023/08/04 07:09:27;;;;;;;;;;;23.20;52.70;;;;;;1568546;74;1452;-68
2023/08/04 07:11:29;;;;;;;;;;;23.30;52.80;;;;;;1571563;74;755;-67
2023/08/04 07:13:31;;;;;;;;;;;23.20;52.70;;;;;;1581810;74;904;-68
2023/08/04 07:15:33;;;;;;;;;;;23.30;52.80;;;;;;1561316;74;1929;-68
2023/08/04 07:17:35;;;;;;;;;;;23.20;52.70;;;;;;1553103;74;692;-68
2023/08/04 07:19:36;;;;;;;;;;;23.20;52.70;;;;;;1556018;74;671;-68
2023/08/04 07:21:38;;;;;;;;;;;23.20;52.70;;;;;;1556653;74;810;-67
2023/08/04 07:23:40;;;;;;;;;;;23.20;52.60;;;;;;1555672;74;1692;-67
2023/08/04 07:25:42;;;;;;;;;;;23.20;52.60;;;;;;1554522;76;1175;-68
2023/08/04 07:27:44;;;;;;;;;;;23.20;52.60;;;;;;1557675;74;795;-68
2023/08/04 07:29:46;;;;;;;;;;;23.20;52.60;;;;;;1561396;74;708;-68
2023/08/04 07:31:48;;;;;;;;;;;23.20;52.60;;;;;;1561581;74;736;-66
2023/08/04 07:33:50;;;;;;;;;;;23.20;52.60;;;;;;1561504;74;796;-66
2023/08/04 07:35:53;;;;;;;;;;;23.20;52.60;;;;;;1570471;74;1957;-67
2023/08/04 07:37:54;;;;;;;;;;;23.20;52.60;;;;;;1568744;74;1687;-68
2023/08/04 07:39:56;;;;;;;;;;;23.20;52.50;;;;;;1558235;74;1252;-67
2023/08/04 07:41:59;;;;;;;;;;;23.20;52.40;;;;;;1560431;74;1330;-68
2023/08/04 07:44:01;;;;;;;;;;;23.20;52.40;;;;;;1556993;74;1388;-68
2023/08/04 07:46:02;;;;;;;;;;;23.20;52.30;;;;;;1560043;74;1483;-67
2023/08/04 07:48:04;;;;;;;;;;;23.20;52.20;;;;;;1555511;74;1041;-66
2023/08/04 07:50:07;;;;;;;;;;;23.20;52.30;;;;;;1556602;74;1483;-67
2023/08/04 07:52:09;;;;;;;;;;;23.20;52.30;;;;;;1556729;74;1359;-68
2023/08/04 07:54:11;;;;;;;;;;;23.20;52.30;;;;;;1564635;74;1511;-68
2023/08/04 07:56:13;;;;;;;;;;;23.20;52.30;;;;;;1565332;74;1925;-68
2023/08/04 07:58:14;;;;;;;;;;;23.20;52.40;;;;;;1565572;74;1477;-67
2023/08/04 08:00:16;;;;;;;;;;;23.20;52.50;;;;;;1566568;74;1385;-66
2023/08/04 08:02:18;;;;;;;;;;;23.20;52.60;;;;;;1555272;74;1540;-68
2023/08/04 08:04:20;;;;;;;;;;;23.20;52.60;;;;;;1550397;74;1133;-66
2023/08/04 08:06:22;;;;;;;;;;;23.30;52.70;;;;;;1580650;73;1388;-66
2023/08/04 08:08:24;;;;;;;;;;;23.20;52.70;;;;;;1554082;75;1697;-67
2023/08/04 08:10:26;;;;;;;;;;;23.20;52.70;;;;;;1551243;75;1452;-68
2023/08/04 08:12:29;;;;;;;;;;;23.20;52.70;;;;;;1556764;75;1344;-68
2023/08/04 08:14:31;;;;;;;;;;;23.30;52.90;;;;;;1554985;75;1489;-68
2023/08/04 08:16:33;;;;;;;;;;;23.20;52.90;;;;;;1560721;75;1927;-68
2023/08/04 08:18:35;;;;;;;;;;;23.20;53.00;;;;;;1553122;75;1511;-68
2023/08/04 08:20:38;;;;;;;;;;;23.30;53.10;;;;;;1554529;75;1069;-68
2023/08/04 08:22:40;;;;;;;;;;;23.20;53.10;;;;;;1559213;75;1696;-67
2023/08/04 08:24:42;;;;;;;;;;;23.20;53.20;;;;;;1554586;75;1323;-67
2023/08/04 08:26:44;;;;;;;;;;;23.20;53.30;;;;;;1553069;75;1558;-68
2023/08/04 08:28:46;;;;;;;;;;;23.20;53.40;;;;;;1549039;75;1391;-68
2023/08/04 08:30:47;;;;;;;;;;;23.20;53.50;;;;;;1552648;75;1314;-68
2023/08/04 08:32:49;;;;;;;;;;;23.20;53.60;;;;;;1545203;75;1370;-70
2023/08/04 08:34:51;;;;;;;;;;;23.20;53.70;;;;;;1551448;75;1556;-69
2023/08/04 08:36:53;;;;;;;;;;;23.20;53.70;;;;;;1557145;75;1919;-66
2023/08/04 08:38:55;;;;;;;;;;;23.20;53.70;;;;;;1553275;75;1455;-69
2023/08/04 08:40:57;;;;;;;;;;;23.20;53.60;;;;;;1553634;75;1511;-69
2023/08/04 08:42:59;;;;;;;;;;;23.30;53.70;;;;;;1553190;75;1325;-68
2023/08/04 08:45:01;;;;;;;;;;;23.30;53.70;;;;;;1553885;75;1434;-68
2023/08/04 08:47:02;;;;;;;;;;;23.20;53.60;;;;;;1554188;75;1545;-69
2023/08/04 08:49:04;;;;;;;;;;;23.20;53.60;;;;;;1549267;75;1491;-69
2023/08/04 08:51:11;;;;;;;;;;;23.20;53.60;;;;;;1548142;75;1478;-69
2023/08/04 08:53:13;;;;;;;;;;;23.30;53.60;;;;;;1547971;75;1504;-69
2023/08/04 08:55:15;;;;;;;;;;;23.20;53.50;;;;;;1548406;75;1140;-69
2023/08/04 08:57:17;;;;;;;;;;;23.20;53.50;;;;;;1553731;75;1972;-69
2023/08/04 08:59:19;;;;;;;;;;;23.20;53.40;;;;;;1560357;75;1504;-70
2023/08/04 09:01:21;;;;;;;;;;;23.20;53.40;;;;;;1547382;75;1488;-69
2023/08/04 09:03:23;;;;;;;;;;;23.20;53.40;;;;;;1581267;73;1487;-69
2023/08/04 09:05:25;;;;;;;;;;;23.20;53.40;;;;;;1548125;75;1558;-70
2023/08/04 09:07:26;;;;;;;;;;;23.20;53.40;;;;;;1554271;75;1493;-69
2023/08/04 09:09:29;;;;;;;;;;;23.20;53.20;;;;;;1578879;73;1364;-69
2023/08/04 09:11:30;;;;;;;;;;;23.20;53.30;;;;;;1542853;75;1497;-69
2023/08/04 09:13:32;;;;;;;;;;;23.20;53.20;;;;;;1561750;74;1505;-69
2023/08/04 09:15:35;;;;;;;;;;;23.20;53.20;;;;;;1563098;74;1383;-69
2023/08/04 09:17:37;;;;;;;;;;;23.30;53.30;;;;;;1554630;74;1932;-69
2023/08/04 09:19:39;;;;;;;;;;;23.20;53.20;;;;;;1560866;74;1714;-68
2023/08/04 09:21:41;;;;;;;;;;;23.20;53.20;;;;;;1555243;74;1634;-69
2023/08/04 09:23:43;;;;;;;;;;;23.20;53.20;;;;;;1562339;74;1368;-69
2023/08/04 09:25:55;;;;;;;;;;;23.20;53.20;;;;;;1565612;74;1540;-70
2023/08/04 09:27:57;;;;;;;;;;;23.20;53.20;;;;;;1576415;74;1253;-68
2023/08/04 09:29:59;;;;;;;;;;;23.20;53.20;;;;;;1562857;74;1251;-69
2023/08/04 09:32:01;;;;;;;;;;;23.20;53.10;;;;;;1568443;74;1440;-69
2023/08/04 09:34:11;;;;;;;;;;;23.20;53.20;;;;;;1535274;76;1508;-69
2023/08/04 09:36:11;;;;;;;;;;;23.20;53.20;;;;;;1577327;73;1923;-69
2023/08/04 09:38:13;;;;;;;;;;;23.20;53.10;;;;;;1587443;73;1539;-69
2023/08/04 09:40:18;;;;;;;;;;;23.20;53.20;;;;;;1546679;75;1570;-69
2023/08/04 09:42:21;;;;;;;;;;;23.20;53.10;;;;;;1551933;74;1327;-68
2023/08/04 09:44:25;;;;;;;;;;;23.20;53.10;;;;;;1554152;75;1350;-69
2023/08/04 09:46:26;;;;;;;;;;;23.20;53.10;;;;;;1558652;75;1586;-69
2023/08/04 09:48:28;;;;;;;;;;;23.20;53.20;;;;;;1555943;75;1551;-67
2023/08/04 09:50:30;;;;;;;;;;;23.20;53.20;;;;;;1548881;75;1503;-69
2023/08/04 09:52:34;;;;;;;;;;;23.20;53.20;;;;;;1561686;74;1506;-69
2023/08/04 09:54:35;;;;;;;;;;;23.20;53.20;;;;;;1557066;74;1343;-69
2023/08/04 09:56:37;;;;;;;;;;;23.20;53.20;;;;;;1558804;74;1926;-69
2023/08/04 09:58:40;;;;;;;;;;;23.20;53.20;;;;;;1551680;74;1511;-70
2023/08/04 10:00:42;;;;;;;;;;;23.20;53.10;;;;;;1556717;74;1498;-66
2023/08/04 10:02:43;;;;;;;;;;;23.20;53.10;;;;;;1558586;74;1601;-70
2023/08/04 10:04:51;;;;;;;;;;;23.20;53.10;;;;;;1556147;74;1559;-69
2023/08/04 10:06:53;;;;;;;;;;;23.20;53.10;;;;;;1556723;74;1578;-68
2023/08/04 10:08:55;;;;;;;;;;;23.20;53.10;;;;;;1557179;74;1085;-69
2023/08/04 10:10:58;;;;;;;;;;;23.20;53.10;;;;;;1573600;74;1550;-69
2023/08/04 10:13:00;;;;;;;;;;;23.20;53.10;;;;;;1566710;75;1526;-66
2023/08/04 10:15:02;;;;;;;;;;;23.20;53.10;;;;;;1546341;75;1577;-69
2023/08/04 10:17:04;;;;;;;;;;;23.20;53.10;;;;;;1555632;74;1943;-68
2023/08/04 10:19:10;;;;;;;;;;;23.20;53.10;;;;;;1562987;74;1316;-69
2023/08/04 10:21:09;;;;;;;;;;;23.20;53.10;;;;;;1563899;74;1458;-69
2023/08/04 10:23:12;;;;;;;;;;;23.20;53.10;;;;;;1558480;74;1587;-69
2023/08/04 10:25:15;;;;;;;;;;;23.20;53.10;;;;;;1562594;74;1611;-69
2023/08/04 10:27:21;;;;;;;;;;;23.20;53.10;;;;;;1563114;74;1496;-67
2023/08/04 10:29:24;;;;;;;;;;;23.20;53.10;;;;;;1563264;74;1418;-69
2023/08/04 10:31:28;;;;;;;;;;;23.20;53.10;;;;;;1561297;74;1941;-69
2023/08/04 10:33:30;;;;;;;;;;;23.20;53.10;;;;;;1562709;74;1365;-69
2023/08/04 10:35:31;;;;;;;;;;;23.20;53.10;;;;;;1565512;74;1548;-67
2023/08/04 10:37:50;;;;;;;;;;;23.30;53.20;;;;;;1585835;73;1943;-68
2023/08/04 10:39:56;;;;;;;;;;;23.30;53.10;;;;;;1558489;74;1492;-65
2023/08/04 10:41:58;;;;;;;;;;;23.20;53.10;;;;;;1571653;74;1745;-68
2023/08/04 10:44:00;;;;;;;;;;;23.20;53.10;;;;;;1551516;74;1470;-68
2023/08/04 10:46:09;;;;;;;;;;;23.30;53.10;;;;;;1555313;74;1295;-67
2023/08/04 10:48:08;;;;;;;;;;;23.20;53.10;;;;;;1530871;75;1725;-65
2023/08/04 10:50:10;;;;;;;;;;;23.20;53.00;;;;;;1535440;75;1187;-66
2023/08/04 10:52:12;;;;;;;;;;;23.20;53.00;;;;;;1548565;74;1160;-68
2023/08/04 10:54:14;;;;;;;;;;;23.30;53.10;;;;;;1558577;74;1600;-67
2023/08/04 10:56:17;;;;;;;;;;;23.20;53.00;;;;;;1560914;74;1542;-67
2023/08/04 10:58:19;;;;;;;;;;;23.30;53.10;;;;;;1565874;74;1675;-65
2023/08/04 11:00:21;;;;;;;;;;;23.20;53.00;;;;;;1553934;74;1482;-68
2023/08/04 11:02:23;;;;;;;;;;;23.30;53.10;;;;;;1569640;74;1563;-68
2023/08/04 11:04:25;;;;;;;;;;;23.30;53.10;;;;;;1559245;74;1476;-68
2023/08/04 11:06:27;;;;;;;;;;;23.30;53.10;;;;;;1564233;74;1340;-67
2023/08/04 11:08:29;;;;;;;;;;;23.20;53.10;;;;;;1563763;74;1343;-67
2023/08/04 11:10:31;;;;;;;;;;;23.30;53.10;;;;;;1554805;74;1429;-67
2023/08/04 11:12:33;;;;;;;;;;;23.20;53.00;;;;;;1532475;75;1531;-67
2023/08/04 11:14:35;;;;;;;;;;;23.20;53.10;;;;;;1569132;74;1259;-67
2023/08/04 11:16:37;;;;;;;;;;;23.30;53.10;;;;;;1564322;74;1932;-68
2023/08/04 11:18:39;;;;;;;;;;;23.30;53.10;;;;;;1565641;74;1249;-67
2023/08/04 11:20:41;;;;;;;;;;;23.30;53.10;;;;;;1529401;76;1683;-69
2023/08/04 11:22:49;;;;;;;;;;;23.30;53.10;;;;;;1571060;74;1257;-68
2023/08/04 11:24:53;;;;;;;;;;;23.30;53.10;;;;;;1567662;74;1372;-68
2023/08/04 11:26:55;;;;;;;;;;;23.30;53.10;;;;;;1556242;74;1218;-67
2023/08/04 11:28:58;;;;;;;;;;;23.20;53.10;;;;;;1557403;74;1489;-67
2023/08/04 11:31:08;;;;;;;;;;;23.30;53.10;;;;;;1563264;74;1532;-68
2023/08/04 11:33:08;;;;;;;;;;;23.30;53.10;;;;;;1556732;74;1475;-66
2023/08/04 11:35:10;;;;;;;;;;;23.20;53.00;;;;;;1557087;74;1508;-67
2023/08/04 11:37:11;;;;;;;;;;;23.30;53.10;;;;;;1565986;74;1946;-66
2023/08/04 11:39:13;;;;;;;;;;;23.30;53.10;;;;;;1565318;74;1562;-66
2023/08/04 11:41:16;;;;;;;;;;;23.30;53.10;;;;;;1561904;74;1308;-68
2023/08/04 11:43:18;;;;;;;;;;;23.30;53.10;;;;;;1552724;74;1681;-67
2023/08/04 11:45:20;;;;;;;;;;;23.30;53.10;;;;;;1558920;74;1412;-68
2023/08/04 11:47:22;;;;;;;;;;;23.20;53.00;;;;;;1558959;74;1317;-66
2023/08/04 11:49:24;;;;;;;;;;;23.20;53.10;;;;;;1530237;75;1262;-67
2023/08/04 11:51:26;;;;;;;;;;;23.30;53.40;;;;;;1555859;74;1603;-68
2023/08/04 11:53:28;;;;;;;;;;;23.30;53.50;;;;;;1557378;74;1546;-68
2023/08/04 11:55:29;;;;;;;;;;;23.30;53.60;;;;;;1562625;74;1323;-68
2023/08/04 11:57:32;;;;;;;;;;;23.30;53.70;;;;;;1560707;74;1944;-68
2023/08/04 11:59:34;;;;;;;;;;;23.30;53.90;;;;;;1565859;74;1514;-68
2023/08/04 12:01:35;;;;;;;;;;;23.30;54.00;;;;;;1521886;75;1508;-68
2023/08/04 12:03:48;;;;;;;;;;;23.30;54.30;;;;;;1555296;74;1356;-68
2023/08/04 12:05:50;;;;;;;;;;;23.30;54.50;;;;;;1566286;74;1517;-68
2023/08/04 12:07:53;;;;;;;;;;;23.30;54.80;;;;;;1557426;74;1619;-68